createdAt,value
2019-04-30T00:00:34.838Z,61.40
2019-04-30T00:03:06.614Z,61.70
2019-04-30T00:05:35.261Z,61.60
2019-04-30T00:08:05.469Z,61.70
2019-04-30T00:10:39.655Z,61.80
2019-04-30T00:13:06.088Z,61.80
2019-04-30T00:15:35.718Z,61.90
2019-04-30T00:18:05.520Z,61.90
2019-04-30T00:20:37.196Z,61.90
2019-04-30T00:23:05.161Z,62.00
2019-04-30T00:25:35.186Z,62.00
2019-04-30T00:28:05.231Z,61.90
2019-04-30T00:30:35.038Z,62.00
2019-04-30T00:33:05.662Z,61.90
2019-04-30T00:35:35.541Z,61.80
2019-04-30T00:38:05.062Z,61.80
2019-04-30T00:40:35.201Z,61.60
2019-04-30T00:43:05.271Z,61.80
2019-04-30T00:45:35.363Z,61.80
2019-04-30T00:48:05.866Z,61.70
2019-04-30T00:50:37.233Z,61.70
2019-04-30T00:53:05.931Z,61.70
2019-04-30T00:55:38.155Z,61.80
2019-04-30T00:58:05.946Z,61.90
2019-04-30T01:00:37.180Z,61.90
2019-04-30T01:03:13.383Z,61.90
2019-04-30T01:05:46.493Z,62.00
2019-04-30T01:08:11.940Z,63.10
2019-04-30T01:10:40.346Z,62.10
2019-04-30T01:13:11.932Z,62.00
2019-04-30T01:15:39.098Z,62.30
2019-04-30T01:18:09.237Z,63.10
2019-04-30T01:20:38.591Z,62.60
2019-04-30T01:23:11.264Z,62.60
2019-04-30T01:25:38.866Z,62.60
2019-04-30T01:28:08.400Z,62.80
2019-04-30T01:30:39.296Z,62.80
2019-04-30T01:33:09.125Z,63.00
2019-04-30T01:35:38.226Z,63.00
2019-04-30T01:38:11.148Z,63.10
2019-04-30T01:40:42.790Z,63.20
2019-04-30T01:43:11.666Z,63.30
2019-04-30T01:45:40.091Z,63.30
2019-04-30T01:48:12.436Z,63.50
2019-04-30T01:50:42.077Z,63.50
2019-04-30T01:53:13.060Z,63.70
2019-04-30T01:55:41.486Z,63.70
2019-04-30T01:58:11.713Z,63.70
2019-04-30T02:00:54.022Z,63.70
2019-04-30T02:03:22.433Z,64.70
2019-04-30T02:05:50.851Z,63.70
2019-04-30T02:08:19.657Z,63.80
2019-04-30T02:10:49.136Z,64.00
2019-04-30T02:13:18.883Z,64.00
2019-04-30T02:15:49.257Z,64.00
2019-04-30T02:18:19.542Z,64.00
2019-04-30T02:20:49.669Z,64.00
2019-04-30T02:23:19.636Z,64.20
2019-04-30T02:25:49.045Z,64.00
2019-04-30T02:28:18.998Z,64.10
2019-04-30T02:30:50.257Z,64.30
2019-04-30T02:33:19.949Z,64.20
2019-04-30T02:36:06.004Z,64.30
2019-04-30T02:38:36.047Z,64.50
2019-04-30T02:41:06.216Z,64.60
2019-04-30T02:43:36.222Z,64.60
2019-04-30T02:46:05.587Z,64.70
2019-04-30T02:48:36.278Z,65.00
2019-04-30T02:51:06.508Z,64.90
2019-04-30T02:53:50.529Z,64.30
2019-04-30T02:56:20.206Z,65.10
2019-04-30T02:58:50.732Z,65.00
2019-04-30T03:01:20.414Z,65.20
2019-04-30T03:03:50.172Z,65.30
2019-04-30T03:06:20.530Z,65.40
2019-04-30T03:08:51.130Z,65.70
2019-04-30T03:11:20.651Z,65.60
2019-04-30T03:13:52.234Z,65.80
2019-04-30T03:16:22.303Z,65.90
2019-04-30T03:18:52.385Z,66.10
2019-04-30T03:21:40.491Z,66.20
2019-04-30T03:24:10.756Z,66.40
2019-04-30T03:26:40.000Z,66.50
2019-04-30T03:29:11.190Z,66.80
2019-04-30T03:31:43.785Z,67.00
2019-04-30T03:34:12.352Z,67.20
2019-04-30T03:36:40.397Z,67.40
2019-04-30T03:39:10.749Z,67.80
2019-04-30T03:41:41.225Z,68.00
2019-04-30T03:44:20.971Z,68.30
2019-04-30T03:46:40.321Z,68.70
2019-04-30T03:49:10.616Z,68.90
2019-04-30T03:51:40.452Z,68.90
2019-04-30T03:54:10.035Z,69.10
2019-04-30T03:56:41.959Z,69.20
2019-04-30T03:59:10.887Z,69.40
2019-04-30T04:01:44.043Z,69.50
2019-04-30T04:04:30.940Z,69.90
2019-04-30T04:07:01.690Z,69.70
2019-04-30T04:09:31.782Z,69.50
2019-04-30T04:12:20.458Z,69.60
2019-04-30T04:14:50.721Z,69.70
2019-04-30T04:17:20.205Z,69.80
2019-04-30T04:19:51.747Z,70.10
2019-04-30T04:22:21.072Z,70.40
2019-04-30T04:24:50.887Z,70.60
2019-04-30T04:27:19.853Z,70.80
2019-04-30T04:29:51.046Z,71.00
2019-04-30T04:32:20.655Z,71.20
2019-04-30T04:34:50.570Z,71.40
2019-04-30T04:37:19.765Z,71.40
2019-04-30T04:39:50.273Z,71.60
2019-04-30T04:42:19.548Z,71.70
2019-04-30T04:44:50.129Z,71.80
2019-04-30T04:47:20.030Z,71.90
2019-04-30T04:49:53.115Z,72.00
2019-04-30T04:52:21.390Z,71.90
2019-04-30T04:54:50.811Z,71.90
2019-04-30T04:57:22.404Z,71.90
2019-04-30T04:59:50.072Z,71.90
2019-04-30T05:02:32.110Z,71.80
2019-04-30T05:05:00.153Z,72.00
2019-04-30T05:07:29.265Z,71.90
2019-04-30T05:10:00.552Z,71.80
2019-04-30T05:12:29.764Z,71.80
2019-04-30T05:14:59.803Z,71.70
2019-04-30T05:17:29.691Z,71.50
2019-04-30T05:19:58.847Z,71.40
2019-04-30T05:22:29.196Z,72.20
2019-04-30T05:24:58.868Z,71.20
2019-04-30T05:27:27.488Z,71.00
2019-04-30T05:29:55.973Z,71.10
2019-04-30T05:32:24.404Z,71.00
2019-04-30T05:34:52.824Z,71.20
2019-04-30T05:37:22.553Z,71.10
2019-04-30T05:39:51.037Z,71.20
2019-04-30T05:42:19.446Z,71.30
2019-04-30T05:44:49.687Z,71.40
2019-04-30T05:47:19.637Z,71.40
2019-04-30T05:49:48.967Z,71.50
2019-04-30T05:52:19.722Z,71.20
2019-04-30T05:54:48.806Z,71.00
2019-04-30T05:57:19.544Z,70.70
2019-04-30T05:59:48.714Z,70.70
2019-04-30T06:02:19.396Z,70.50
2019-04-30T06:04:48.942Z,70.40
2019-04-30T06:07:18.938Z,70.40
2019-04-30T06:09:53.091Z,70.10
2019-04-30T06:12:29.114Z,69.90
2019-04-30T06:15:05.131Z,69.50
2019-04-30T06:17:34.189Z,69.40
2019-04-30T06:20:02.700Z,69.20
2019-04-30T06:22:31.175Z,68.90
2019-04-30T06:24:59.846Z,68.70
2019-04-30T06:27:29.161Z,68.30
2019-04-30T06:29:58.511Z,68.10
2019-04-30T06:32:26.947Z,67.70
2019-04-30T06:34:55.634Z,67.50
2019-04-30T06:37:24.290Z,67.30
2019-04-30T06:39:52.711Z,67.10
2019-04-30T06:42:21.218Z,66.80
2019-04-30T06:44:50.282Z,66.70
2019-04-30T06:47:32.384Z,66.70
2019-04-30T06:49:51.099Z,66.70
2019-04-30T06:52:23.012Z,67.10
2019-04-30T06:54:49.957Z,67.40
2019-04-30T06:57:19.822Z,67.20
2019-04-30T06:59:51.324Z,67.00
2019-04-30T07:02:19.660Z,66.50
2019-04-30T07:04:49.316Z,65.10
2019-04-30T07:07:22.827Z,63.60
2019-04-30T07:09:59.242Z,62.20
2019-04-30T07:12:44.444Z,62.10
2019-04-30T07:15:13.781Z,61.30
2019-04-30T07:17:42.386Z,60.10
2019-04-30T07:20:11.042Z,60.10
2019-04-30T07:22:45.511Z,59.80
2019-04-30T07:25:09.655Z,59.40
2019-04-30T07:27:40.166Z,58.90
2019-04-30T07:30:10.016Z,58.30
2019-04-30T07:32:39.571Z,57.70
2019-04-30T07:35:09.538Z,57.30
2019-04-30T07:37:39.275Z,57.70
2019-04-30T07:40:09.303Z,57.50
2019-04-30T07:42:44.431Z,56.70
2019-04-30T07:45:09.686Z,56.60
2019-04-30T07:47:39.490Z,56.40
2019-04-30T07:50:10.786Z,55.70
2019-04-30T07:52:58.073Z,55.40
2019-04-30T07:55:09.794Z,55.30
2019-04-30T07:57:40.454Z,55.20
2019-04-30T08:00:09.794Z,54.90
2019-04-30T08:02:43.520Z,54.10
2019-04-30T08:05:24.105Z,52.60
2019-04-30T08:07:52.623Z,51.00
2019-04-30T08:10:21.086Z,50.00
2019-04-30T08:12:50.770Z,49.50
2019-04-30T08:15:19.943Z,49.60
2019-04-30T08:18:01.886Z,49.70
2019-04-30T08:20:19.652Z,48.40
2019-04-30T08:22:49.389Z,47.80
2019-04-30T08:25:19.937Z,47.00
2019-04-30T08:27:49.249Z,46.50
2019-04-30T08:30:23.898Z,46.40
2019-04-30T08:32:49.946Z,46.60
2019-04-30T08:35:19.675Z,47.10
2019-04-30T08:37:49.710Z,47.90
2019-04-30T08:40:19.060Z,47.80
2019-04-30T08:42:49.502Z,47.40
2019-04-30T08:45:19.730Z,47.60
2019-04-30T08:47:49.335Z,47.50
2019-04-30T08:50:19.850Z,46.50
2019-04-30T08:52:49.828Z,45.00
2019-04-30T08:55:22.387Z,43.30
2019-04-30T08:57:50.144Z,41.70
2019-04-30T09:00:20.051Z,42.00
2019-04-30T09:02:49.308Z,41.50
2019-04-30T09:05:22.250Z,41.00
2019-04-30T09:07:50.670Z,40.20
2019-04-30T09:10:19.297Z,40.40
2019-04-30T09:12:49.507Z,40.50
2019-04-30T09:15:18.906Z,40.10
2019-04-30T09:18:00.304Z,39.70
2019-04-30T09:20:19.446Z,38.30
2019-04-30T09:22:49.639Z,37.90
2019-04-30T09:25:19.449Z,37.80
2019-04-30T09:27:48.794Z,38.40
2019-04-30T09:30:18.835Z,37.30
2019-04-30T09:32:47.502Z,36.20
2019-04-30T09:35:16.191Z,35.10
2019-04-30T09:37:44.607Z,34.30
2019-04-30T09:40:18.244Z,33.10
2019-04-30T09:42:44.093Z,33.70
2019-04-30T09:45:12.498Z,34.40
2019-04-30T09:47:42.089Z,35.00
2019-04-30T09:50:12.276Z,35.00
2019-04-30T09:52:41.023Z,34.50
2019-04-30T09:55:10.091Z,33.80
2019-04-30T09:57:39.063Z,33.80
2019-04-30T10:00:09.853Z,33.30
2019-04-30T10:02:38.873Z,32.50
2019-04-30T10:05:08.930Z,31.80
2019-04-30T10:07:39.377Z,31.50
2019-04-30T10:10:11.235Z,31.60
2019-04-30T10:12:39.271Z,31.50
2019-04-30T10:15:10.782Z,31.90
2019-04-30T10:17:41.067Z,31.90
2019-04-30T10:20:12.392Z,32.10
2019-04-30T10:22:40.829Z,32.20
2019-04-30T10:25:10.833Z,31.90
2019-04-30T10:27:39.351Z,31.30
2019-04-30T10:30:09.411Z,30.30
2019-04-30T10:32:38.323Z,30.00
2019-04-30T10:35:07.680Z,30.00
2019-04-30T10:37:36.168Z,30.00
2019-04-30T10:40:07.421Z,30.00
2019-04-30T10:42:35.833Z,29.70
2019-04-30T10:45:07.333Z,29.30
2019-04-30T10:47:35.752Z,29.20
2019-04-30T10:50:06.938Z,29.30
2019-04-30T10:52:34.634Z,29.20
2019-04-30T10:55:04.550Z,29.90
2019-04-30T10:57:33.204Z,29.40
2019-04-30T11:00:01.911Z,28.60
2019-04-30T11:02:31.179Z,28.70
2019-04-30T11:04:59.808Z,28.80
2019-04-30T11:07:28.798Z,28.80
2019-04-30T11:09:58.838Z,28.50
2019-04-30T11:12:29.067Z,28.40
2019-04-30T11:14:57.498Z,28.30
2019-04-30T11:17:26.097Z,28.50
2019-04-30T11:19:54.665Z,28.70
2019-04-30T11:22:23.291Z,28.90
2019-04-30T11:24:58.977Z,29.10
2019-04-30T11:27:22.576Z,28.70
2019-04-30T11:29:51.554Z,28.70
2019-04-30T11:32:21.933Z,29.00
2019-04-30T11:34:50.553Z,28.90
2019-04-30T11:37:19.028Z,28.90
2019-04-30T11:39:47.443Z,28.80
2019-04-30T11:42:15.869Z,28.80
2019-04-30T11:44:44.266Z,28.80
2019-04-30T11:47:16.950Z,28.80
2019-04-30T11:49:45.366Z,28.90
2019-04-30T11:52:13.765Z,29.10
2019-04-30T11:54:49.181Z,29.30
2019-04-30T11:57:12.382Z,29.40
2019-04-30T11:59:40.798Z,30.00
2019-04-30T12:02:10.847Z,29.90
2019-04-30T12:04:39.711Z,30.00
2019-04-30T12:07:12.984Z,29.90
2019-04-30T12:09:48.621Z,30.00
2019-04-30T12:12:18.815Z,30.60
2019-04-30T12:14:47.190Z,31.20
2019-04-30T12:17:15.916Z,31.00
2019-04-30T12:19:44.769Z,30.80
2019-04-30T12:22:13.162Z,30.90
2019-04-30T12:24:41.567Z,31.20
2019-04-30T12:27:10.058Z,32.60
2019-04-30T12:29:39.774Z,32.10
2019-04-30T12:32:08.675Z,32.50
2019-04-30T12:34:37.078Z,32.90
2019-04-30T12:37:05.499Z,33.20
2019-04-30T12:39:33.911Z,33.40
2019-04-30T12:42:02.350Z,33.80
2019-04-30T12:44:30.741Z,33.70
2019-04-30T12:46:59.166Z,33.40
2019-04-30T12:49:29.211Z,33.50
2019-04-30T12:51:59.286Z,33.80
2019-04-30T12:54:29.322Z,34.70
2019-04-30T12:57:01.790Z,34.50
2019-04-30T12:59:30.190Z,34.60
2019-04-30T13:01:59.363Z,34.70
2019-04-30T13:04:29.385Z,34.50
2019-04-30T13:07:01.460Z,35.10
2019-04-30T13:09:30.144Z,34.30
2019-04-30T13:12:00.568Z,34.30
2019-04-30T13:14:30.166Z,34.00
2019-04-30T13:16:59.041Z,34.20
2019-04-30T13:19:27.511Z,34.50
2019-04-30T13:21:58.507Z,34.90
2019-04-30T13:24:26.489Z,34.80
2019-04-30T13:26:55.003Z,34.70
2019-04-30T13:29:34.182Z,34.80
2019-04-30T13:32:02.626Z,34.90
2019-04-30T13:34:50.981Z,34.80
2019-04-30T13:37:19.415Z,34.60
2019-04-30T13:40:01.888Z,34.20
2019-04-30T13:42:32.010Z,34.20
2019-04-30T13:45:00.429Z,34.10
2019-04-30T13:47:29.327Z,34.10
2019-04-30T13:50:12.100Z,34.10
2019-04-30T13:52:41.325Z,34.40
2019-04-30T13:55:10.940Z,34.60
2019-04-30T13:57:39.522Z,34.70
2019-04-30T14:00:12.223Z,34.40
2019-04-30T14:02:44.736Z,34.50
2019-04-30T14:05:18.404Z,34.20
2019-04-30T14:08:04.939Z,33.90
2019-04-30T14:10:34.989Z,33.80
2019-04-30T14:13:04.394Z,33.70
2019-04-30T14:15:32.799Z,34.00
2019-04-30T14:18:01.663Z,34.10
2019-04-30T14:20:30.078Z,34.20
2019-04-30T14:22:58.490Z,34.20
2019-04-30T14:25:26.983Z,34.10
2019-04-30T14:27:55.503Z,34.20
2019-04-30T14:30:24.290Z,34.40
2019-04-30T14:32:52.694Z,34.10
2019-04-30T14:35:21.474Z,34.00
2019-04-30T14:37:49.892Z,34.10
2019-04-30T14:40:20.223Z,34.00
2019-04-30T14:42:51.657Z,34.30
2019-04-30T14:45:28.999Z,34.50
2019-04-30T14:48:11.955Z,34.40
2019-04-30T14:50:40.918Z,34.20
2019-04-30T14:53:10.984Z,34.20
2019-04-30T14:56:08.822Z,33.90
2019-04-30T14:58:31.123Z,34.00
2019-04-30T15:01:19.361Z,34.00
2019-04-30T15:03:49.507Z,34.00
2019-04-30T15:06:19.372Z,34.10
2019-04-30T15:08:49.490Z,34.10
2019-04-30T15:11:19.055Z,34.20
2019-04-30T15:13:49.292Z,34.90
2019-04-30T15:16:17.919Z,34.30
2019-04-30T15:18:46.335Z,34.50
2019-04-30T15:21:14.775Z,34.60
2019-04-30T15:23:58.583Z,34.80
2019-04-30T15:26:25.226Z,35.00
2019-04-30T15:28:53.798Z,35.10
2019-04-30T15:31:22.498Z,35.10
2019-04-30T15:34:02.884Z,35.10
2019-04-30T15:36:29.805Z,35.20
2019-04-30T15:39:16.389Z,35.50
2019-04-30T15:41:45.053Z,36.20
2019-04-30T15:44:13.688Z,35.60
2019-04-30T15:46:42.245Z,35.70
2019-04-30T15:49:10.652Z,35.80
2019-04-30T15:51:39.161Z,35.90
2019-04-30T15:54:07.570Z,35.90
2019-04-30T15:56:40.019Z,36.00
2019-04-30T15:59:13.385Z,36.00
2019-04-30T16:01:43.990Z,36.10
2019-04-30T16:04:14.038Z,36.20
2019-04-30T16:06:42.465Z,36.30
2019-04-30T16:09:30.865Z,36.30
2019-04-30T16:12:12.713Z,36.60
2019-04-30T16:14:42.718Z,36.70
2019-04-30T16:17:15.514Z,36.60
2019-04-30T16:19:44.215Z,37.10
2019-04-30T16:22:12.798Z,37.40
2019-04-30T16:24:41.219Z,37.60
2019-04-30T16:27:09.701Z,37.80
2019-04-30T16:29:38.794Z,37.70
2019-04-30T16:32:09.254Z,37.90
2019-04-30T16:34:38.893Z,38.00
2019-04-30T16:37:07.644Z,38.80
2019-04-30T16:39:36.063Z,38.30
2019-04-30T16:42:05.233Z,38.50
2019-04-30T16:44:36.577Z,38.70
2019-04-30T16:47:13.590Z,39.50
2019-04-30T16:49:35.296Z,38.80
2019-04-30T16:52:03.780Z,39.00
2019-04-30T16:54:36.391Z,39.30
2019-04-30T16:57:06.885Z,39.30
2019-04-30T16:59:42.469Z,38.90
2019-04-30T17:02:12.155Z,39.50
2019-04-30T17:04:42.482Z,39.60
2019-04-30T17:07:28.949Z,39.80
2019-04-30T17:10:10.963Z,40.00
2019-04-30T17:12:43.460Z,40.10
2019-04-30T17:15:13.989Z,40.20
2019-04-30T17:17:42.493Z,40.50
2019-04-30T17:20:11.442Z,40.80
2019-04-30T17:22:39.857Z,41.00
2019-04-30T17:25:08.808Z,41.30
2019-04-30T17:27:39.138Z,41.40
2019-04-30T17:30:09.085Z,41.70
2019-04-30T17:32:39.482Z,41.90
2019-04-30T17:35:09.121Z,42.00
2019-04-30T17:37:37.608Z,42.20
2019-04-30T17:40:09.255Z,42.40
2019-04-30T17:42:37.215Z,42.70
2019-04-30T17:45:09.285Z,43.00
2019-04-30T17:47:37.525Z,43.20
2019-04-30T17:50:08.746Z,43.50
2019-04-30T17:52:37.088Z,43.70
2019-04-30T17:55:09.926Z,44.00
2019-04-30T17:57:40.318Z,44.10
2019-04-30T18:00:18.829Z,44.60
2019-04-30T18:02:41.205Z,45.50
2019-04-30T18:05:11.325Z,45.00
2019-04-30T18:07:39.936Z,45.20
2019-04-30T18:10:10.600Z,45.40
2019-04-30T18:12:39.243Z,45.50
2019-04-30T18:15:12.430Z,45.90
2019-04-30T18:17:42.947Z,46.20
2019-04-30T18:20:13.030Z,46.50
2019-04-30T18:22:59.999Z,46.90
2019-04-30T18:25:30.064Z,47.40
2019-04-30T18:28:02.538Z,47.40
2019-04-30T18:30:35.369Z,47.50
2019-04-30T18:33:04.430Z,47.60
2019-04-30T18:35:33.310Z,47.90
2019-04-30T18:38:01.759Z,48.00
2019-04-30T18:40:30.353Z,48.20
2019-04-30T18:42:59.392Z,48.40
2019-04-30T18:45:28.822Z,48.50
2019-04-30T18:47:59.545Z,48.50
2019-04-30T18:50:27.609Z,48.80
2019-04-30T18:52:58.724Z,49.30
2019-04-30T18:55:28.127Z,49.20
2019-04-30T18:57:59.174Z,49.50
2019-04-30T19:00:29.414Z,49.80
2019-04-30T19:02:58.646Z,49.90
2019-04-30T19:05:30.967Z,50.10
2019-04-30T19:08:00.220Z,49.80
2019-04-30T19:10:30.405Z,50.00
2019-04-30T19:13:02.902Z,50.30
2019-04-30T19:16:14.244Z,50.50
2019-04-30T19:18:25.851Z,50.60
2019-04-30T19:20:55.708Z,50.80
2019-04-30T19:23:24.180Z,51.00
2019-04-30T19:25:52.598Z,51.40
2019-04-30T19:28:21.090Z,51.60
2019-04-30T19:30:57.983Z,51.90
2019-04-30T19:33:19.642Z,52.20
2019-04-30T19:35:50.387Z,52.50
2019-04-30T19:38:18.190Z,52.70
2019-04-30T19:40:46.602Z,52.90
2019-04-30T19:43:15.181Z,53.00
2019-04-30T19:45:43.605Z,53.10
2019-04-30T19:48:12.032Z,53.20
2019-04-30T19:50:40.442Z,53.40
2019-04-30T19:53:09.023Z,53.40
2019-04-30T19:55:39.396Z,53.50
2019-04-30T19:58:07.941Z,53.90
2019-04-30T20:00:36.351Z,53.70
2019-04-30T20:03:04.761Z,53.90
2019-04-30T20:05:33.238Z,53.80
2019-04-30T20:08:01.695Z,53.90
2019-04-30T20:10:30.178Z,54.10
2019-04-30T20:12:58.853Z,54.10
2019-04-30T20:15:29.641Z,54.30
2019-04-30T20:17:58.364Z,54.70
2019-04-30T20:20:28.774Z,54.80
2019-04-30T20:22:57.367Z,55.60
2019-04-30T20:25:25.781Z,55.30
2019-04-30T20:27:54.187Z,55.60
2019-04-30T20:30:22.610Z,55.70
2019-04-30T20:32:51.367Z,55.90
2019-04-30T20:35:20.005Z,56.00
2019-04-30T20:38:06.458Z,56.40
2019-04-30T20:40:43.269Z,56.40
2019-04-30T20:43:08.445Z,56.40
2019-04-30T20:45:36.658Z,56.50
2019-04-30T20:48:05.202Z,56.80
2019-04-30T20:50:33.986Z,57.00
2019-04-30T20:53:02.413Z,57.10
2019-04-30T20:55:30.819Z,57.30
2019-04-30T20:57:59.547Z,57.50
2019-04-30T21:00:28.123Z,57.60
2019-04-30T21:02:56.549Z,57.80
2019-04-30T21:05:25.033Z,58.10
2019-04-30T21:07:53.449Z,58.20
2019-04-30T21:10:21.915Z,58.40
2019-04-30T21:12:50.311Z,58.60
2019-04-30T21:15:19.687Z,58.80
2019-04-30T21:17:48.429Z,59.10
2019-04-30T21:20:19.377Z,59.40
2019-04-30T21:22:49.434Z,59.50
2019-04-30T21:25:18.885Z,59.70
2019-04-30T21:27:49.890Z,60.20
2019-04-30T21:30:17.899Z,60.40
2019-04-30T21:32:48.556Z,60.60
2019-04-30T21:35:24.978Z,60.90
2019-04-30T21:37:55.237Z,61.10
2019-04-30T21:40:23.721Z,61.20
2019-04-30T21:42:52.126Z,61.20
2019-04-30T21:45:20.564Z,61.50
2019-04-30T21:47:56.155Z,61.60
2019-04-30T21:50:19.722Z,61.70
2019-04-30T21:52:49.577Z,61.70
2019-04-30T21:55:19.802Z,61.60
2019-04-30T21:57:49.621Z,61.80
2019-04-30T22:00:29.695Z,62.00
2019-04-30T22:02:59.812Z,61.90
2019-04-30T22:05:28.413Z,62.30
2019-04-30T22:07:59.055Z,62.40
2019-04-30T22:10:26.995Z,62.70
2019-04-30T22:12:55.431Z,62.90
2019-04-30T22:15:23.845Z,63.30
2019-04-30T22:17:52.254Z,63.30
2019-04-30T22:20:20.955Z,63.60
2019-04-30T22:22:49.602Z,63.80
2019-04-30T22:25:19.383Z,63.80
2019-04-30T22:27:47.910Z,64.10
2019-04-30T22:30:16.817Z,64.10
2019-04-30T22:32:45.218Z,64.10
2019-04-30T22:35:27.030Z,64.40
2019-04-30T22:37:59.151Z,64.50
2019-04-30T22:40:29.058Z,64.50
2019-04-30T22:42:59.249Z,64.80
2019-04-30T22:45:29.560Z,64.90
2019-04-30T22:47:58.889Z,65.00
2019-04-30T22:50:27.659Z,65.10
2019-04-30T22:52:56.303Z,65.00
2019-04-30T22:55:24.720Z,65.40
2019-04-30T22:57:53.123Z,65.40
2019-04-30T23:00:29.115Z,65.40
2019-04-30T23:02:59.175Z,66.20
2019-04-30T23:05:27.581Z,65.40
2019-04-30T23:07:55.986Z,65.60
2019-04-30T23:10:24.404Z,65.80
2019-04-30T23:12:53.261Z,65.80
2019-04-30T23:15:21.790Z,66.10
2019-04-30T23:17:50.200Z,65.90
2019-04-30T23:20:18.748Z,65.80
2019-04-30T23:22:47.253Z,66.60
2019-04-30T23:25:15.730Z,65.90
2019-04-30T23:27:44.145Z,65.70
2019-04-30T23:30:13.094Z,66.50
2019-04-30T23:32:41.605Z,66.60
2019-04-30T23:35:10.490Z,66.80
2019-04-30T23:37:38.979Z,66.90
2019-04-30T23:40:28.949Z,67.00
2019-04-30T23:42:57.686Z,67.20
2019-04-30T23:45:26.166Z,67.50
2019-04-30T23:47:54.653Z,67.60
2019-04-30T23:50:23.125Z,67.80
2019-04-30T23:52:51.871Z,68.00
2019-04-30T23:55:20.346Z,68.20
2019-04-30T23:57:48.774Z,68.20
